createdAt,value
2019-01-08T00:00:39.986Z,85.16
2019-01-08T00:03:08.355Z,85.65
2019-01-08T00:05:36.727Z,85.29
2019-01-08T00:08:04.989Z,85.18
2019-01-08T00:10:33.399Z,85.35
2019-01-08T00:13:01.709Z,85.57
2019-01-08T00:15:30.022Z,85.01
2019-01-08T00:17:58.298Z,84.90
2019-01-08T00:20:26.763Z,84.87
2019-01-08T00:22:55.031Z,84.71
2019-01-08T00:25:23.341Z,84.51
2019-01-08T00:27:51.631Z,84.88
2019-01-08T00:30:19.926Z,84.73
2019-01-08T00:32:48.214Z,84.42
2019-01-08T00:35:16.584Z,84.21
2019-01-08T00:37:44.918Z,84.05
2019-01-08T00:40:13.251Z,84.02
2019-01-08T00:42:41.547Z,83.98
2019-01-08T00:45:09.863Z,84.19
2019-01-08T00:47:38.217Z,84.65
2019-01-08T00:50:06.594Z,84.37
2019-01-08T00:52:34.952Z,84.09
2019-01-08T00:55:03.240Z,84.42
2019-01-08T00:57:31.647Z,84.61
2019-01-08T00:59:59.966Z,84.69
2019-01-08T01:02:28.298Z,84.95
2019-01-08T01:04:56.663Z,85.13
2019-01-08T01:07:24.986Z,85.41
2019-01-08T01:09:53.351Z,85.07
2019-01-08T01:12:21.690Z,85.20
2019-01-08T01:14:50.010Z,85.04
2019-01-08T01:17:18.446Z,85.50
2019-01-08T01:19:46.920Z,85.00
2019-01-08T01:22:15.183Z,85.19
2019-01-08T01:24:43.569Z,85.39
2019-01-08T01:27:14.802Z,85.76
2019-01-08T01:29:43.215Z,85.79
2019-01-08T01:32:11.594Z,86.27
2019-01-08T01:34:39.847Z,85.78
2019-01-08T01:37:08.187Z,85.85
2019-01-08T01:39:36.479Z,85.94
2019-01-08T01:42:04.762Z,86.23
2019-01-08T01:44:33.053Z,86.31
2019-01-08T01:47:01.324Z,86.33
2019-01-08T01:49:29.655Z,86.01
2019-01-08T01:51:57.964Z,85.97
2019-01-08T01:54:26.291Z,85.97
2019-01-08T01:56:54.629Z,86.01
2019-01-08T01:59:22.955Z,85.78
2019-01-08T02:01:51.216Z,85.58
2019-01-08T02:04:19.747Z,85.50
2019-01-08T02:06:48.146Z,85.03
2019-01-08T02:09:16.540Z,84.58
2019-01-08T02:11:44.884Z,84.94
2019-01-08T02:14:13.174Z,84.69
2019-01-08T02:16:41.536Z,84.52
2019-01-08T02:19:09.797Z,84.37
2019-01-08T02:21:38.209Z,84.34
2019-01-08T02:24:06.524Z,84.30
2019-01-08T02:26:34.866Z,84.12
2019-01-08T02:29:03.169Z,84.22
2019-01-08T02:31:31.404Z,83.85
2019-01-08T02:33:59.762Z,83.94
2019-01-08T02:36:28.052Z,83.96
2019-01-08T02:38:56.368Z,83.78
2019-01-08T02:41:24.907Z,83.53
2019-01-08T02:43:53.707Z,84.05
2019-01-08T02:46:21.965Z,84.28
2019-01-08T02:48:50.338Z,84.41
2019-01-08T02:51:18.630Z,85.60
2019-01-08T02:53:47.198Z,86.20
2019-01-08T02:56:15.586Z,87.46
2019-01-08T02:58:43.929Z,87.89
2019-01-08T03:01:12.457Z,88.09
2019-01-08T03:03:40.850Z,87.15
2019-01-08T03:06:09.103Z,88.80
2019-01-08T03:08:37.430Z,89.74
2019-01-08T03:11:05.732Z,89.50
2019-01-08T03:13:33.985Z,89.82
2019-01-08T03:16:02.409Z,90.22
2019-01-08T03:18:30.755Z,90.27
2019-01-08T03:20:59.158Z,90.58
2019-01-08T03:23:27.506Z,90.61
2019-01-08T03:25:55.905Z,91.48
2019-01-08T03:28:24.258Z,90.75
2019-01-08T03:30:52.578Z,89.55
2019-01-08T03:33:20.932Z,89.83
2019-01-08T03:35:49.301Z,89.17
2019-01-08T03:38:17.673Z,89.27
2019-01-08T03:40:46.012Z,88.97
2019-01-08T03:43:14.375Z,88.52
2019-01-08T03:45:42.659Z,88.69
2019-01-08T03:48:11.052Z,89.06
2019-01-08T03:50:39.453Z,89.23
2019-01-08T03:53:07.720Z,89.52
2019-01-08T03:55:36.021Z,89.81
2019-01-08T03:58:04.422Z,89.99
2019-01-08T04:00:32.711Z,90.35
2019-01-08T04:03:01.019Z,90.59
2019-01-08T04:05:29.483Z,90.56
2019-01-08T04:07:57.746Z,90.09
2019-01-08T04:10:28.318Z,89.66
2019-01-08T04:12:56.651Z,88.89
2019-01-08T04:15:25.113Z,88.05
2019-01-08T04:17:53.423Z,87.83
2019-01-08T04:20:21.676Z,87.72
2019-01-08T04:22:49.965Z,87.27
2019-01-08T04:25:18.381Z,86.36
2019-01-08T04:27:46.768Z,86.24
2019-01-08T04:30:15.054Z,86.69
2019-01-08T04:32:43.390Z,86.29
2019-01-08T04:35:11.859Z,86.23
2019-01-08T04:37:40.216Z,86.38
2019-01-08T04:40:08.531Z,85.31
2019-01-08T04:42:36.921Z,84.93
2019-01-08T04:45:05.180Z,85.09
2019-01-08T04:47:33.547Z,84.93
2019-01-08T04:50:01.933Z,84.72
2019-01-08T04:52:30.697Z,84.86
2019-01-08T04:54:58.931Z,85.48
2019-01-08T04:57:27.316Z,86.08
2019-01-08T04:59:59.039Z,85.73
2019-01-08T05:02:25.728Z,85.24
2019-01-08T05:04:55.024Z,84.54
2019-01-08T05:07:23.382Z,84.70
2019-01-08T05:09:51.890Z,85.02
2019-01-08T05:12:20.494Z,84.05
2019-01-08T05:14:48.873Z,83.98
2019-01-08T05:17:17.132Z,83.63
2019-01-08T05:19:45.500Z,83.21
2019-01-08T05:22:13.773Z,83.14
2019-01-08T05:24:42.320Z,82.88
2019-01-08T05:27:10.659Z,83.58
2019-01-08T05:29:38.933Z,83.79
2019-01-08T05:32:07.354Z,83.27
2019-01-08T05:34:35.618Z,83.32
2019-01-08T05:37:03.948Z,83.28
2019-01-08T05:39:56.030Z,83.22
2019-01-08T05:42:24.777Z,83.51
2019-01-08T05:44:53.067Z,83.32
2019-01-08T05:47:21.406Z,83.92
2019-01-08T05:49:49.960Z,83.57
2019-01-08T05:52:18.322Z,84.04
2019-01-08T05:54:46.609Z,84.83
2019-01-08T05:57:14.905Z,84.95
2019-01-08T05:59:43.196Z,84.74
2019-01-08T06:02:11.544Z,84.14
2019-01-08T06:04:39.945Z,84.92
2019-01-08T06:07:08.290Z,84.83
2019-01-08T06:09:36.667Z,84.72
2019-01-08T06:12:05.007Z,84.42
2019-01-08T06:14:33.393Z,84.37
2019-01-08T06:17:01.715Z,83.82
2019-01-08T06:19:29.979Z,84.26
2019-01-08T06:21:58.359Z,82.74
2019-01-08T06:24:26.716Z,83.02
2019-01-08T06:26:54.980Z,82.54
2019-01-08T06:29:23.446Z,82.00
2019-01-08T06:31:51.714Z,81.70
2019-01-08T06:34:20.093Z,81.30
2019-01-08T06:36:48.641Z,81.53
2019-01-08T06:39:16.974Z,81.35
2019-01-08T06:41:45.440Z,81.35
2019-01-08T06:44:13.733Z,81.37
2019-01-08T06:46:43.139Z,81.05
2019-01-08T06:49:11.685Z,80.57
2019-01-08T06:51:40.037Z,81.20
2019-01-08T06:54:08.373Z,81.46
2019-01-08T06:56:36.709Z,81.32
2019-01-08T06:59:05.126Z,81.33
2019-01-08T07:01:33.708Z,81.34
2019-01-08T07:04:02.052Z,81.39
2019-01-08T07:06:30.335Z,81.24
2019-01-08T07:08:58.622Z,81.58
2019-01-08T07:11:27.016Z,81.51
2019-01-08T07:13:55.391Z,82.12
2019-01-08T07:16:23.711Z,82.20
2019-01-08T07:18:52.039Z,82.49
2019-01-08T07:21:20.445Z,82.47
2019-01-08T07:23:48.826Z,83.21
2019-01-08T07:26:17.149Z,84.06
2019-01-08T07:28:45.400Z,84.43
2019-01-08T07:31:13.823Z,85.45
2019-01-08T07:33:42.222Z,86.35
2019-01-08T07:36:10.518Z,86.71
2019-01-08T07:38:38.785Z,87.79
2019-01-08T07:41:07.100Z,88.60
2019-01-08T07:43:35.478Z,88.90
2019-01-08T07:46:03.986Z,89.31
2019-01-08T07:48:32.261Z,89.44
2019-01-08T07:51:00.614Z,89.95
2019-01-08T07:53:28.946Z,90.41
2019-01-08T07:55:57.338Z,90.42
2019-01-08T07:58:25.713Z,90.32
2019-01-08T08:00:54.077Z,90.44
2019-01-08T08:03:22.573Z,90.51
2019-01-08T08:05:50.952Z,90.58
2019-01-08T08:08:19.221Z,90.52
2019-01-08T08:10:47.557Z,90.80
2019-01-08T08:13:15.913Z,91.03
2019-01-08T08:15:44.211Z,90.72
2019-01-08T08:18:12.481Z,91.05
2019-01-08T08:20:40.879Z,91.22
2019-01-08T08:23:09.161Z,91.42
2019-01-08T08:25:37.434Z,91.67
2019-01-08T08:28:06.067Z,91.48
2019-01-08T08:30:34.368Z,91.66
2019-01-08T08:33:02.632Z,91.70
2019-01-08T08:35:30.926Z,91.56
2019-01-08T08:37:59.226Z,91.39
2019-01-08T08:40:27.585Z,91.38
2019-01-08T08:42:55.874Z,91.40
2019-01-08T08:45:24.167Z,91.21
2019-01-08T08:47:52.508Z,91.22
2019-01-08T08:50:20.799Z,91.07
2019-01-08T08:52:49.092Z,90.61
2019-01-08T08:55:17.564Z,90.54
2019-01-08T08:57:45.944Z,89.57
2019-01-08T09:00:14.308Z,89.39
2019-01-08T09:02:42.602Z,89.42
2019-01-08T09:05:11.071Z,89.35
2019-01-08T09:07:39.373Z,89.12
2019-01-08T09:10:07.773Z,89.01
2019-01-08T09:12:36.156Z,88.23
2019-01-08T09:15:04.895Z,87.97
2019-01-08T09:17:33.255Z,87.95
2019-01-08T09:20:01.561Z,87.74
2019-01-08T09:22:30.040Z,87.38
2019-01-08T09:24:58.327Z,87.55
2019-01-08T09:27:26.659Z,86.60
2019-01-08T09:29:54.969Z,87.32
2019-01-08T09:32:23.280Z,86.83
2019-01-08T09:34:51.551Z,86.60
2019-01-08T09:37:20.041Z,86.31
2019-01-08T09:39:48.411Z,85.85
2019-01-08T09:42:16.677Z,85.29
2019-01-08T09:44:45.012Z,85.02
2019-01-08T09:47:13.321Z,85.76
2019-01-08T09:49:41.775Z,85.21
2019-01-08T09:52:10.052Z,85.34
2019-01-08T09:54:38.424Z,84.97
2019-01-08T09:57:06.924Z,84.96
2019-01-08T09:59:35.599Z,85.23
2019-01-08T10:02:04.852Z,85.45
2019-01-08T10:04:33.143Z,85.44
2019-01-08T10:07:01.517Z,85.27
2019-01-08T10:09:29.824Z,85.91
2019-01-08T10:11:58.204Z,86.66
2019-01-08T10:14:26.610Z,87.67
2019-01-08T10:16:54.938Z,87.65
2019-01-08T10:19:23.213Z,87.59
2019-01-08T10:21:52.418Z,87.97
2019-01-08T10:24:20.691Z,88.31
2019-01-08T10:26:48.986Z,89.00
2019-01-08T10:29:17.489Z,89.34
2019-01-08T10:31:45.756Z,89.84
2019-01-08T10:34:14.032Z,88.80
2019-01-08T10:36:42.333Z,87.67
2019-01-08T10:39:10.599Z,86.51
2019-01-08T10:41:38.969Z,85.75
2019-01-08T10:44:07.328Z,85.49
2019-01-08T10:46:37.522Z,83.84
2019-01-08T10:49:05.710Z,83.21
2019-01-08T10:51:34.098Z,82.46
2019-01-08T10:54:02.385Z,82.50
2019-01-08T10:56:30.741Z,80.56
2019-01-08T10:59:07.380Z,80.92
2019-01-08T11:01:29.066Z,80.21
2019-01-08T11:03:57.341Z,78.61
2019-01-08T11:06:25.748Z,77.86
2019-01-08T11:08:54.137Z,76.41
2019-01-08T11:11:22.604Z,75.48
2019-01-08T11:13:51.009Z,75.50
2019-01-08T11:16:19.283Z,79.93
2019-01-08T11:18:47.714Z,81.91
2019-01-08T11:21:16.084Z,82.63
2019-01-08T11:23:44.427Z,82.31
2019-01-08T11:26:12.773Z,81.28
2019-01-08T11:28:43.121Z,81.66
2019-01-08T11:31:11.243Z,81.57
2019-01-08T11:33:39.572Z,82.16
2019-01-08T11:36:08.020Z,81.21
2019-01-08T11:38:36.370Z,82.28
2019-01-08T11:41:06.351Z,82.67
2019-01-08T11:43:34.762Z,82.88
2019-01-08T11:46:03.285Z,81.75
2019-01-08T11:48:31.674Z,83.44
2019-01-08T11:51:00.156Z,83.80
2019-01-08T11:53:28.483Z,82.65
2019-01-08T11:55:56.770Z,82.98
2019-01-08T11:58:25.068Z,84.05
2019-01-08T12:00:53.494Z,83.24
2019-01-08T12:03:21.830Z,82.25
2019-01-08T12:05:50.108Z,81.14
2019-01-08T12:08:18.480Z,77.80
2019-01-08T12:10:46.901Z,78.26
2019-01-08T12:13:15.255Z,76.16
2019-01-08T12:15:43.722Z,77.39
2019-01-08T12:18:12.106Z,78.47
2019-01-08T12:20:40.391Z,79.61
2019-01-08T12:23:08.737Z,81.32
2019-01-08T12:25:37.005Z,82.76
2019-01-08T12:28:05.386Z,84.46
2019-01-08T12:30:33.722Z,84.87
2019-01-08T12:33:02.185Z,85.05
2019-01-08T12:35:30.593Z,84.33
2019-01-08T12:37:58.849Z,83.95
2019-01-08T12:40:27.162Z,83.04
2019-01-08T12:42:55.523Z,82.09
2019-01-08T12:45:23.967Z,81.02
2019-01-08T12:47:52.240Z,80.24
2019-01-08T12:50:20.628Z,80.09
2019-01-08T12:52:48.971Z,79.04
2019-01-08T12:55:17.374Z,79.09
2019-01-08T12:57:45.792Z,78.39
2019-01-08T13:00:14.449Z,78.10
2019-01-08T13:02:42.817Z,82.83
2019-01-08T13:05:11.172Z,83.81
2019-01-08T13:07:39.747Z,84.45
2019-01-08T13:10:09.116Z,85.11
2019-01-08T13:12:37.778Z,83.55
2019-01-08T13:15:07.217Z,83.52
2019-01-08T13:17:37.847Z,82.87
2019-01-08T13:20:08.580Z,83.55
2019-01-08T13:22:37.464Z,83.33
2019-01-08T13:25:06.586Z,84.08
2019-01-08T13:27:35.164Z,83.40
2019-01-08T13:30:03.656Z,81.28
2019-01-08T13:32:32.868Z,82.18
2019-01-08T13:35:01.195Z,81.85
2019-01-08T13:37:29.671Z,82.34
2019-01-08T13:39:57.934Z,83.21
2019-01-08T13:42:26.250Z,84.38
2019-01-08T13:44:54.620Z,83.99
2019-01-08T13:47:22.994Z,84.61
2019-01-08T13:49:51.558Z,85.27
2019-01-08T13:52:19.893Z,84.96
2019-01-08T13:54:48.195Z,83.75
2019-01-08T13:57:16.537Z,83.26
2019-01-08T13:59:45.008Z,83.21
2019-01-08T14:02:14.873Z,83.39
2019-01-08T14:04:43.634Z,83.47
2019-01-08T14:07:13.207Z,81.68
2019-01-08T14:09:42.826Z,81.62
2019-01-08T14:12:12.236Z,81.52
2019-01-08T14:14:41.115Z,81.87
2019-01-08T14:17:09.815Z,80.94
2019-01-08T14:19:38.142Z,80.06
2019-01-08T14:22:06.589Z,79.45
2019-01-08T14:24:35.437Z,78.92
2019-01-08T14:27:11.683Z,80.23
2019-01-08T14:29:34.343Z,79.98
2019-01-08T14:32:04.019Z,80.38
2019-01-08T14:34:33.592Z,78.89
2019-01-08T14:37:02.060Z,79.06
2019-01-08T14:39:30.342Z,77.46
2019-01-08T14:41:58.604Z,77.14
2019-01-08T14:44:26.973Z,76.83
2019-01-08T14:46:55.363Z,75.49
2019-01-08T14:49:23.736Z,75.50
2019-01-08T14:51:52.009Z,75.25
2019-01-08T14:54:20.355Z,75.90
2019-01-08T14:56:48.827Z,76.74
2019-01-08T14:59:17.140Z,76.43
2019-01-08T15:01:45.555Z,77.25
2019-01-08T15:04:13.966Z,78.53
2019-01-08T15:06:42.314Z,78.31
2019-01-08T15:09:10.619Z,78.60
2019-01-08T15:11:39.005Z,79.03
2019-01-08T15:14:07.340Z,79.15
2019-01-08T15:16:35.634Z,80.03
2019-01-08T15:19:04.005Z,81.54
2019-01-08T15:21:32.324Z,82.34
2019-01-08T15:24:00.951Z,83.96
2019-01-08T15:26:29.925Z,84.15
2019-01-08T15:28:59.088Z,84.63
2019-01-08T15:31:27.426Z,85.61
2019-01-08T15:33:58.106Z,84.63
2019-01-08T15:36:26.592Z,82.82
2019-01-08T15:38:57.789Z,81.91
2019-01-08T15:41:26.712Z,81.18
2019-01-08T15:43:55.333Z,80.52
2019-01-08T15:46:23.699Z,80.54
2019-01-08T15:48:52.065Z,80.76
2019-01-08T15:51:20.459Z,80.11
2019-01-08T15:53:48.765Z,80.15
2019-01-08T15:56:18.739Z,79.94
2019-01-08T15:58:47.281Z,79.01
2019-01-08T16:01:15.643Z,79.58
2019-01-08T16:03:44.657Z,80.01
2019-01-08T16:06:14.135Z,80.36
2019-01-08T16:08:42.438Z,81.40
2019-01-08T16:11:11.912Z,82.41
2019-01-08T16:13:42.499Z,82.44
2019-01-08T16:16:17.157Z,81.81
2019-01-08T16:18:47.074Z,81.94
2019-01-08T16:21:16.274Z,81.79
2019-01-08T16:23:44.575Z,81.37
2019-01-08T16:26:13.659Z,80.30
2019-01-08T16:28:50.047Z,80.02
2019-01-08T16:31:18.411Z,79.49
2019-01-08T16:33:46.675Z,79.72
2019-01-08T16:36:15.077Z,79.35
2019-01-08T16:38:43.554Z,77.84
2019-01-08T16:41:11.857Z,78.28
2019-01-08T16:43:40.235Z,78.53
2019-01-08T16:46:08.715Z,79.77
2019-01-08T16:48:37.078Z,79.84
2019-01-08T16:51:06.117Z,79.95
2019-01-08T16:53:41.242Z,82.56
2019-01-08T16:56:04.659Z,83.73
2019-01-08T16:58:33.011Z,84.56
2019-01-08T17:01:18.811Z,85.18
2019-01-08T17:03:47.604Z,85.51
2019-01-08T17:06:18.107Z,85.95
2019-01-08T17:08:47.098Z,86.06
2019-01-08T17:11:15.432Z,85.83
2019-01-08T17:13:44.926Z,84.57
2019-01-08T17:16:13.307Z,83.87
2019-01-08T17:18:43.151Z,83.25
2019-01-08T17:21:11.562Z,82.15
2019-01-08T17:23:40.902Z,80.76
2019-01-08T17:26:09.421Z,80.98
2019-01-08T17:28:37.874Z,80.89
2019-01-08T17:31:06.382Z,81.49
2019-01-08T17:33:34.684Z,81.86
2019-01-08T17:36:03.265Z,82.33
2019-01-08T17:38:31.525Z,82.43
2019-01-08T17:40:59.927Z,82.76
2019-01-08T17:43:33.456Z,83.12
2019-01-08T17:46:00.945Z,82.64
2019-01-08T17:48:29.706Z,82.35
2019-01-08T17:50:58.626Z,81.92
2019-01-08T17:53:30.990Z,80.58
2019-01-08T17:56:04.666Z,80.80
2019-01-08T17:58:36.601Z,79.73
2019-01-08T18:01:08.434Z,79.52
2019-01-08T18:03:42.505Z,79.91
2019-01-08T18:06:06.871Z,79.61
2019-01-08T18:08:35.716Z,80.18
2019-01-08T18:11:05.329Z,80.33
2019-01-08T18:13:34.489Z,80.11
2019-01-08T18:16:02.908Z,80.92
2019-01-08T18:18:31.321Z,80.93
2019-01-08T18:20:59.826Z,81.47
2019-01-08T18:23:28.121Z,81.18
2019-01-08T18:25:56.642Z,80.97
2019-01-08T18:28:25.222Z,81.00
2019-01-08T18:30:54.087Z,80.74
2019-01-08T18:33:23.269Z,80.56
2019-01-08T18:35:52.269Z,80.84
2019-01-08T18:38:21.034Z,81.19
2019-01-08T18:40:49.466Z,81.53
2019-01-08T18:43:17.849Z,82.18
2019-01-08T18:45:46.164Z,82.60
2019-01-08T18:48:14.494Z,81.99
2019-01-08T18:50:45.592Z,81.53
2019-01-08T18:53:14.140Z,80.93
2019-01-08T18:55:43.080Z,81.02
2019-01-08T18:58:11.871Z,81.23
2019-01-08T19:00:40.253Z,81.93
2019-01-08T19:03:08.827Z,82.08
2019-01-08T19:05:37.189Z,82.13
2019-01-08T19:08:06.235Z,81.85
2019-01-08T19:10:36.111Z,81.56
2019-01-08T19:13:04.452Z,80.45
2019-01-08T19:15:33.099Z,80.08
2019-01-08T19:18:01.990Z,79.28
2019-01-08T19:20:30.434Z,79.84
2019-01-08T19:23:00.039Z,79.33
2019-01-08T19:25:28.481Z,79.44
2019-01-08T19:27:58.219Z,79.65
2019-01-08T19:30:28.235Z,79.67
2019-01-08T19:32:57.256Z,79.82
2019-01-08T19:35:31.482Z,79.96
2019-01-08T19:37:56.109Z,81.01
2019-01-08T19:40:24.539Z,82.21
2019-01-08T19:42:54.577Z,82.29
2019-01-08T19:45:23.011Z,83.69
2019-01-08T19:47:51.569Z,84.93
2019-01-08T19:50:20.190Z,85.84
2019-01-08T19:52:48.870Z,85.48
2019-01-08T19:55:17.371Z,85.34
2019-01-08T19:57:45.838Z,85.19
2019-01-08T20:00:14.181Z,86.29
2019-01-08T20:02:42.534Z,85.64
2019-01-08T20:05:15.856Z,86.21
2019-01-08T20:07:44.921Z,86.65
2019-01-08T20:10:13.243Z,85.79
2019-01-08T20:12:42.093Z,85.90
2019-01-08T20:15:10.640Z,86.12
2019-01-08T20:17:39.884Z,86.24
2019-01-08T20:20:09.423Z,85.90
2019-01-08T20:22:38.191Z,86.29
2019-01-08T20:25:07.841Z,86.63
2019-01-08T20:27:36.434Z,86.88
2019-01-08T20:30:07.598Z,87.21
2019-01-08T20:32:36.007Z,87.24
2019-01-08T20:35:04.373Z,87.37
2019-01-08T20:37:32.855Z,87.39
2019-01-08T20:40:01.224Z,86.99
2019-01-08T20:42:29.568Z,87.29
2019-01-08T20:44:57.966Z,86.78
2019-01-08T20:47:26.912Z,85.83
2019-01-08T20:49:55.708Z,85.10
2019-01-08T20:52:24.201Z,85.09
2019-01-08T20:54:53.123Z,83.66
2019-01-08T20:57:21.541Z,83.90
2019-01-08T20:59:49.870Z,83.41
2019-01-08T21:02:19.563Z,83.97
2019-01-08T21:04:47.982Z,83.72
2019-01-08T21:07:17.907Z,83.46
2019-01-08T21:09:46.558Z,83.62
2019-01-08T21:12:14.821Z,83.84
2019-01-08T21:14:43.178Z,84.13
2019-01-08T21:17:11.540Z,83.34
2019-01-08T21:19:39.806Z,83.39
2019-01-08T21:22:10.324Z,83.30
2019-01-08T21:24:38.735Z,83.79
2019-01-08T21:27:12.981Z,84.06
2019-01-08T21:29:41.603Z,84.84
2019-01-08T21:32:10.222Z,85.15
2019-01-08T21:34:44.208Z,85.73
2019-01-08T21:37:08.896Z,86.15
2019-01-08T21:39:37.279Z,86.33
2019-01-08T21:42:06.784Z,86.11
2019-01-08T21:44:35.434Z,86.16
2019-01-08T21:47:05.956Z,86.46
2019-01-08T21:49:34.304Z,86.11
2019-01-08T21:52:02.669Z,86.07
2019-01-08T21:54:31.070Z,86.10
2019-01-08T21:56:59.638Z,86.01
2019-01-08T21:59:27.964Z,86.36
2019-01-08T22:01:56.443Z,86.48
2019-01-08T22:04:26.786Z,86.12
2019-01-08T22:06:55.188Z,85.86
2019-01-08T22:09:23.516Z,85.99
2019-01-08T22:11:51.991Z,85.57
2019-01-08T22:14:20.463Z,85.47
2019-01-08T22:16:48.797Z,84.84
2019-01-08T22:19:17.214Z,84.42
2019-01-08T22:21:45.585Z,84.43
2019-01-08T22:24:13.957Z,84.81
2019-01-08T22:26:42.297Z,84.23
2019-01-08T22:29:10.647Z,84.40
2019-01-08T22:31:39.097Z,84.69
2019-01-08T22:34:07.457Z,84.97
2019-01-08T22:36:35.763Z,84.76
2019-01-08T22:39:04.850Z,84.94
2019-01-08T22:41:33.260Z,84.96
2019-01-08T22:44:01.571Z,84.32
2019-01-08T22:46:29.934Z,83.59
2019-01-08T22:48:58.305Z,84.24
2019-01-08T22:51:26.562Z,84.26
2019-01-08T22:53:54.858Z,84.77
2019-01-08T22:56:23.148Z,85.32
2019-01-08T22:58:51.465Z,85.68
2019-01-08T23:01:21.373Z,86.04
2019-01-08T23:03:49.777Z,86.25
2019-01-08T23:06:18.122Z,86.16
2019-01-08T23:08:46.420Z,86.41
2019-01-08T23:11:14.810Z,86.12
2019-01-08T23:13:43.105Z,86.27
2019-01-08T23:16:11.384Z,86.35
2019-01-08T23:18:39.823Z,86.31
2019-01-08T23:21:08.219Z,86.20
2019-01-08T23:23:36.537Z,86.35
2019-01-08T23:26:04.812Z,86.49
2019-01-08T23:28:33.088Z,86.43
2019-01-08T23:31:01.487Z,86.69
2019-01-08T23:33:29.815Z,86.81
2019-01-08T23:35:58.134Z,86.98
2019-01-08T23:38:26.460Z,86.47
2019-01-08T23:40:54.940Z,86.69
2019-01-08T23:43:23.210Z,86.63
2019-01-08T23:45:51.551Z,85.87
2019-01-08T23:48:19.876Z,86.01
2019-01-08T23:50:49.161Z,86.53
2019-01-08T23:53:27.398Z,86.88
2019-01-08T23:55:55.759Z,87.22
2019-01-08T23:58:24.150Z,87.33
